createdAt,value
2022-09-18T00:01:22.975Z,0.83
2022-09-18T00:03:49.937Z,1.00
2022-09-18T00:06:19.870Z,0.77
2022-09-18T00:08:48.523Z,0.90
2022-09-18T00:11:17.182Z,0.97
2022-09-18T00:13:44.322Z,1.20
2022-09-18T00:16:13.486Z,1.00
2022-09-18T00:18:41.075Z,0.83
2022-09-18T00:21:16.561Z,1.10
2022-09-18T00:23:44.569Z,1.40
2022-09-18T00:26:12.811Z,0.90
2022-09-18T00:28:39.670Z,1.07
2022-09-18T00:31:12.797Z,0.90
2022-09-18T00:33:40.198Z,1.03
2022-09-18T00:36:10.686Z,0.90
2022-09-18T00:38:37.719Z,1.17
2022-09-18T00:41:08.102Z,0.93
2022-09-18T00:43:37.079Z,1.07
2022-09-18T00:46:18.089Z,1.43
2022-09-18T00:49:06.552Z,0.67
2022-09-18T00:51:36.548Z,1.00
2022-09-18T00:54:40.934Z,0.93
2022-09-18T00:57:18.615Z,1.37
2022-09-18T00:59:49.932Z,0.93
2022-09-18T01:02:16.807Z,0.60
2022-09-18T01:04:43.658Z,0.57
2022-09-18T01:07:35.475Z,0.90
2022-09-18T01:10:36.471Z,1.03
2022-09-18T01:13:16.013Z,0.63
2022-09-18T01:16:14.364Z,0.80
2022-09-18T01:19:10.805Z,0.53
2022-09-18T01:22:08.054Z,0.77
2022-09-18T01:24:56.121Z,0.60
2022-09-18T01:27:34.700Z,0.63
2022-09-18T01:30:07.673Z,0.77
2022-09-18T01:32:54.931Z,0.70
2022-09-18T01:35:45.755Z,0.70
2022-09-18T01:38:26.734Z,0.70
2022-09-18T01:41:14.972Z,0.77
2022-09-18T01:43:43.900Z,1.03
2022-09-18T01:46:15.527Z,0.97
2022-09-18T01:48:48.676Z,0.50
2022-09-18T01:51:23.648Z,0.93
2022-09-18T01:53:57.055Z,0.80
2022-09-18T01:56:28.383Z,1.00
2022-09-18T01:58:59.902Z,1.03
2022-09-18T02:01:31.269Z,0.70
2022-09-18T02:04:04.212Z,0.80
2022-09-18T02:06:36.398Z,0.67
2022-09-18T02:09:04.475Z,1.07
2022-09-18T02:11:33.475Z,1.20
2022-09-18T02:14:12.855Z,1.23
2022-09-18T02:16:51.818Z,1.20
2022-09-18T02:19:21.840Z,1.10
2022-09-18T02:21:49.711Z,1.60
2022-09-18T02:24:20.606Z,1.20
2022-09-18T02:26:49.435Z,1.27
2022-09-18T02:29:20.211Z,1.13
2022-09-18T02:31:49.045Z,1.47
2022-09-18T02:34:16.915Z,1.57
2022-09-18T02:36:47.437Z,1.30
2022-09-18T02:39:38.421Z,0.93
2022-09-18T02:42:36.259Z,1.20
2022-09-18T02:45:24.555Z,1.17
2022-09-18T02:48:03.175Z,1.00
2022-09-18T02:51:00.272Z,1.10
2022-09-18T02:53:42.190Z,0.70
2022-09-18T02:56:46.712Z,1.00
2022-09-18T02:59:16.476Z,1.20
2022-09-18T03:01:45.686Z,1.00
2022-09-18T03:04:15.173Z,1.20
2022-09-18T03:06:42.158Z,1.00
2022-09-18T03:09:09.006Z,1.10
2022-09-18T03:11:37.176Z,0.90
2022-09-18T03:14:04.379Z,0.90
2022-09-18T03:16:31.403Z,0.80
2022-09-18T03:18:58.309Z,0.90
2022-09-18T03:21:25.599Z,0.90
2022-09-18T03:23:52.544Z,0.77
2022-09-18T03:26:19.344Z,0.80
2022-09-18T03:28:46.150Z,0.97
2022-09-18T03:31:13.234Z,1.00
2022-09-18T03:33:40.392Z,1.27
2022-09-18T03:36:08.327Z,0.80
2022-09-18T03:38:37.848Z,1.07
2022-09-18T03:41:05.064Z,1.53
2022-09-18T03:43:31.933Z,1.10
2022-09-18T03:45:58.753Z,0.80
2022-09-18T03:48:25.740Z,0.60
2022-09-18T03:50:52.636Z,0.70
2022-09-18T03:53:19.491Z,0.50
2022-09-18T03:55:48.584Z,0.80
2022-09-18T03:58:15.332Z,0.80
2022-09-18T04:00:42.339Z,0.60
2022-09-18T04:03:09.449Z,0.70
2022-09-18T04:05:36.332Z,1.10
2022-09-18T04:08:05.254Z,0.70
2022-09-18T04:10:33.148Z,0.67
2022-09-18T04:13:00.250Z,0.70
2022-09-18T04:15:26.995Z,0.60
2022-09-18T04:17:53.834Z,0.90
2022-09-18T04:20:20.585Z,0.70
2022-09-18T04:22:47.338Z,0.67
2022-09-18T04:25:14.453Z,0.73
2022-09-18T04:27:41.273Z,0.83
2022-09-18T04:30:08.944Z,0.60
2022-09-18T04:32:35.801Z,0.77
2022-09-18T04:35:02.736Z,0.47
2022-09-18T04:37:29.538Z,0.70
2022-09-18T04:39:57.188Z,1.17
2022-09-18T04:42:24.031Z,0.60
2022-09-18T04:44:50.820Z,0.40
2022-09-18T04:47:17.623Z,0.70
2022-09-18T04:49:44.404Z,0.70
2022-09-18T04:52:11.371Z,0.63
2022-09-18T04:54:38.219Z,0.60
2022-09-18T04:57:05.333Z,0.50
2022-09-18T04:59:32.139Z,0.53
2022-09-18T05:01:59.851Z,0.70
2022-09-18T05:04:26.681Z,1.00
2022-09-18T05:06:53.548Z,0.57
2022-09-18T05:09:20.358Z,0.50
2022-09-18T05:11:47.987Z,0.70
2022-09-18T05:14:14.722Z,0.53
2022-09-18T05:16:41.478Z,0.60
2022-09-18T05:19:09.156Z,0.60
2022-09-18T05:21:35.920Z,0.50
2022-09-18T05:24:03.228Z,0.80
2022-09-18T05:26:31.353Z,0.37
2022-09-18T05:28:58.087Z,0.50
2022-09-18T05:31:24.924Z,0.87
2022-09-18T05:33:51.739Z,0.70
2022-09-18T05:36:18.503Z,0.57
2022-09-18T05:38:45.635Z,0.37
2022-09-18T05:41:12.497Z,0.50
2022-09-18T05:43:39.248Z,0.80
2022-09-18T05:46:06.605Z,0.70
2022-09-18T05:48:33.400Z,0.70
2022-09-18T05:51:00.152Z,0.70
2022-09-18T05:53:26.948Z,0.87
2022-09-18T05:55:53.803Z,0.70
2022-09-18T05:58:21.293Z,0.83
2022-09-18T06:00:48.694Z,0.47
2022-09-18T06:03:16.660Z,0.60
2022-09-18T06:05:50.980Z,0.50
2022-09-18T06:08:17.762Z,1.27
2022-09-18T06:10:44.662Z,0.67
2022-09-18T06:13:15.563Z,0.60
2022-09-18T06:15:47.682Z,0.50
2022-09-18T06:18:15.212Z,0.50
2022-09-18T06:20:43.159Z,0.57
2022-09-18T06:23:10.120Z,0.50
2022-09-18T06:25:36.940Z,0.60
2022-09-18T06:28:06.565Z,0.80
2022-09-18T06:30:35.746Z,0.50
2022-09-18T06:33:05.207Z,0.80
2022-09-18T06:35:36.419Z,0.50
2022-09-18T06:38:05.147Z,0.63
2022-09-18T06:40:33.172Z,1.00
2022-09-18T06:43:04.704Z,0.50
2022-09-18T06:45:31.847Z,1.03
2022-09-18T06:48:03.413Z,0.60
2022-09-18T06:50:30.842Z,0.50
2022-09-18T06:53:12.203Z,0.60
2022-09-18T06:55:39.638Z,0.50
2022-09-18T06:58:06.400Z,0.77
2022-09-18T07:00:33.252Z,0.50
2022-09-18T07:03:01.807Z,0.50
2022-09-18T07:05:31.146Z,1.23
2022-09-18T07:07:58.548Z,0.50
2022-09-18T07:10:26.461Z,0.60
2022-09-18T07:12:57.408Z,0.77
2022-09-18T07:15:24.807Z,0.77
2022-09-18T07:17:52.669Z,0.77
2022-09-18T07:20:20.454Z,0.60
2022-09-18T07:22:55.471Z,0.63
2022-09-18T07:25:22.653Z,1.10
2022-09-18T07:27:50.200Z,0.70
2022-09-18T07:30:17.439Z,0.80
2022-09-18T07:32:44.831Z,0.70
2022-09-18T07:35:12.185Z,0.73
2022-09-18T07:37:39.637Z,0.90
2022-09-18T07:40:08.789Z,0.87
2022-09-18T07:42:35.835Z,0.90
2022-09-18T07:45:02.828Z,0.90
2022-09-18T07:47:29.933Z,0.90
2022-09-18T07:49:56.691Z,0.80
2022-09-18T07:52:23.436Z,0.90
2022-09-18T07:54:51.037Z,0.70
2022-09-18T07:57:17.921Z,0.73
2022-09-18T07:59:44.635Z,0.83
2022-09-18T08:02:12.921Z,1.17
2022-09-18T08:04:39.892Z,0.73
2022-09-18T08:07:06.840Z,0.87
2022-09-18T08:09:33.618Z,0.80
2022-09-18T08:12:00.736Z,0.70
2022-09-18T08:14:29.053Z,1.00
2022-09-18T08:16:57.042Z,1.30
2022-09-18T08:19:23.779Z,1.00
2022-09-18T08:21:50.720Z,1.23
2022-09-18T08:24:17.806Z,1.00
2022-09-18T08:26:45.298Z,1.10
2022-09-18T08:29:19.013Z,0.83
2022-09-18T08:31:47.174Z,0.70
2022-09-18T08:34:14.237Z,0.90
2022-09-18T08:36:41.089Z,0.83
2022-09-18T08:39:07.919Z,0.87
2022-09-18T08:41:46.587Z,0.80
2022-09-18T08:44:24.457Z,0.77
2022-09-18T08:47:02.130Z,0.80
2022-09-18T08:50:03.080Z,0.80
2022-09-18T08:52:34.671Z,0.83
2022-09-18T08:55:06.193Z,0.83
2022-09-18T08:57:35.584Z,0.50
2022-09-18T09:00:10.969Z,0.80
2022-09-18T09:02:46.707Z,0.80
2022-09-18T09:05:16.793Z,0.93
2022-09-18T09:08:18.955Z,0.60
2022-09-18T09:10:51.952Z,0.77
2022-09-18T09:13:46.414Z,0.50
2022-09-18T09:16:29.871Z,0.60
2022-09-18T09:19:00.364Z,0.90
2022-09-18T09:21:53.241Z,0.57
2022-09-18T09:24:29.955Z,0.80
2022-09-18T09:26:58.085Z,0.70
2022-09-18T09:29:34.991Z,1.10
2022-09-18T09:32:10.537Z,0.77
2022-09-18T09:34:44.652Z,0.40
2022-09-18T09:37:21.724Z,0.50
2022-09-18T09:39:56.663Z,0.47
2022-09-18T09:42:31.522Z,0.47
2022-09-18T09:45:12.254Z,1.03
2022-09-18T09:48:04.103Z,0.30
2022-09-18T09:50:38.480Z,0.50
2022-09-18T09:53:09.429Z,0.50
2022-09-18T09:55:48.334Z,0.70
2022-09-18T09:58:44.581Z,0.67
2022-09-18T10:01:22.319Z,0.67
2022-09-18T10:04:19.839Z,0.50
2022-09-18T10:07:12.791Z,0.97
2022-09-18T10:09:52.702Z,0.40
2022-09-18T10:12:27.426Z,0.73
2022-09-18T10:14:58.746Z,0.70
2022-09-18T10:17:26.656Z,0.77
2022-09-18T10:19:53.695Z,1.00
2022-09-18T10:22:23.236Z,0.50
2022-09-18T10:25:02.367Z,0.40
2022-09-18T10:27:29.156Z,0.30
2022-09-18T10:29:55.978Z,0.60
2022-09-18T10:32:38.556Z,0.60
2022-09-18T10:35:30.013Z,0.60
2022-09-18T10:37:57.972Z,0.50
2022-09-18T10:40:37.253Z,0.40
2022-09-18T10:43:05.065Z,0.90
2022-09-18T10:45:38.159Z,0.50
2022-09-18T10:48:07.598Z,0.70
2022-09-18T10:50:34.736Z,0.60
2022-09-18T10:53:27.765Z,0.50
2022-09-18T10:55:56.026Z,0.80
2022-09-18T10:58:34.003Z,0.50
2022-09-18T11:01:07.881Z,0.70
2022-09-18T11:03:42.389Z,0.83
2022-09-18T11:06:27.681Z,0.90
2022-09-18T11:09:00.985Z,0.60
2022-09-18T11:11:34.205Z,0.97
2022-09-18T11:14:06.567Z,0.70
2022-09-18T11:16:36.401Z,0.80
2022-09-18T11:19:16.276Z,0.70
2022-09-18T11:21:48.460Z,0.73
2022-09-18T11:24:27.355Z,0.60
2022-09-18T11:27:02.467Z,0.70
2022-09-18T11:29:36.963Z,0.50
2022-09-18T11:32:29.757Z,1.10
2022-09-18T11:35:03.209Z,0.80
2022-09-18T11:38:07.813Z,0.60
2022-09-18T11:40:45.094Z,0.60
2022-09-18T11:43:24.614Z,1.10
2022-09-18T11:46:07.032Z,0.87
2022-09-18T11:48:43.254Z,0.80
2022-09-18T11:51:26.709Z,0.60
2022-09-18T11:54:04.464Z,0.60
2022-09-18T11:56:34.645Z,0.73
2022-09-18T11:59:22.909Z,0.63
2022-09-18T12:01:57.072Z,0.83
2022-09-18T12:04:36.502Z,0.60
2022-09-18T12:07:38.524Z,0.60
2022-09-18T12:10:28.223Z,0.70
2022-09-18T12:13:21.906Z,0.97
2022-09-18T12:15:57.170Z,0.90
2022-09-18T12:18:33.820Z,0.60
2022-09-18T12:21:08.238Z,0.53
2022-09-18T12:23:35.017Z,0.47
2022-09-18T12:26:13.846Z,0.50
2022-09-18T12:28:59.116Z,0.93
2022-09-18T12:31:43.944Z,0.80
2022-09-18T12:34:28.962Z,0.80
2022-09-18T12:37:10.712Z,0.70
2022-09-18T12:39:52.077Z,0.57
2022-09-18T12:42:29.523Z,0.50
2022-09-18T12:45:24.392Z,0.40
2022-09-18T12:48:17.835Z,0.50
2022-09-18T12:51:07.161Z,0.60
2022-09-18T12:53:35.100Z,0.57
2022-09-18T12:56:20.429Z,0.53
2022-09-18T12:58:50.239Z,0.50
2022-09-18T13:01:30.811Z,0.60
2022-09-18T13:04:06.220Z,0.30
2022-09-18T13:06:42.683Z,0.33
2022-09-18T13:09:26.058Z,0.40
2022-09-18T13:12:05.856Z,0.50
2022-09-18T13:14:40.230Z,0.40
2022-09-18T13:17:24.809Z,0.30
2022-09-18T13:20:20.958Z,0.30
2022-09-18T13:22:53.433Z,0.37
2022-09-18T13:25:39.388Z,0.30
2022-09-18T13:28:12.623Z,1.10
2022-09-18T13:30:39.991Z,0.47
2022-09-18T13:33:22.847Z,0.40
2022-09-18T13:35:55.593Z,0.50
2022-09-18T13:38:27.823Z,0.57
2022-09-18T13:41:03.751Z,0.40
2022-09-18T13:43:33.283Z,0.47
2022-09-18T13:46:06.912Z,0.50
2022-09-18T13:48:38.721Z,0.67
2022-09-18T13:51:09.355Z,0.70
2022-09-18T13:53:43.395Z,0.50
2022-09-18T13:56:13.965Z,0.40
2022-09-18T13:58:56.070Z,0.50
2022-09-18T14:01:46.220Z,0.33
2022-09-18T14:04:39.373Z,0.40
2022-09-18T14:07:32.267Z,1.00
2022-09-18T14:10:04.391Z,0.97
2022-09-18T14:12:35.143Z,0.80
2022-09-18T14:15:24.733Z,0.60
2022-09-18T14:18:16.285Z,0.70
2022-09-18T14:20:54.976Z,0.90
2022-09-18T14:23:37.062Z,0.60
2022-09-18T14:26:37.605Z,0.70
2022-09-18T14:29:19.409Z,1.10
2022-09-18T14:31:50.474Z,0.90
2022-09-18T14:34:36.044Z,0.80
2022-09-18T14:37:28.548Z,0.90
2022-09-18T14:39:56.625Z,1.03
2022-09-18T14:42:23.314Z,0.67
2022-09-18T14:44:57.698Z,0.40
2022-09-18T14:47:26.753Z,0.80
2022-09-18T14:49:53.995Z,0.60
2022-09-18T14:52:23.895Z,0.70
2022-09-18T14:54:53.421Z,0.60
2022-09-18T14:57:24.324Z,0.70
2022-09-18T14:59:54.964Z,0.90
2022-09-18T15:02:29.527Z,0.60
2022-09-18T15:04:56.484Z,0.70
2022-09-18T15:07:23.635Z,1.00
2022-09-18T15:09:54.533Z,0.60
2022-09-18T15:12:26.478Z,0.60
2022-09-18T15:14:53.562Z,0.77
2022-09-18T15:17:26.302Z,0.73
2022-09-18T15:20:16.215Z,0.90
2022-09-18T15:22:43.401Z,0.83
2022-09-18T15:25:18.350Z,0.90
2022-09-18T15:27:46.015Z,0.80
2022-09-18T15:30:19.677Z,1.20
2022-09-18T15:32:56.618Z,0.90
2022-09-18T15:35:26.723Z,0.90
2022-09-18T15:38:02.829Z,1.80
2022-09-18T15:40:39.864Z,0.90
2022-09-18T15:43:30.155Z,0.90
2022-09-18T15:46:27.870Z,0.90
2022-09-18T15:48:59.461Z,1.00
2022-09-18T15:51:33.029Z,1.00
2022-09-18T15:54:12.717Z,0.70
2022-09-18T15:56:52.192Z,0.67
2022-09-18T15:59:37.002Z,0.70
2022-09-18T16:02:21.120Z,0.70
2022-09-18T16:04:48.009Z,1.00
2022-09-18T16:07:21.600Z,0.77
2022-09-18T16:09:49.761Z,0.80
2022-09-18T16:12:32.532Z,0.90
2022-09-18T16:15:23.162Z,0.97
2022-09-18T16:17:54.485Z,1.10
2022-09-18T16:20:23.410Z,1.30
2022-09-18T16:22:52.619Z,1.07
2022-09-18T16:25:26.344Z,1.00
2022-09-18T16:27:56.444Z,1.90
2022-09-18T16:30:24.335Z,1.90
2022-09-18T16:32:58.942Z,1.80
2022-09-18T16:35:25.738Z,0.73
2022-09-18T16:37:52.666Z,0.73
2022-09-18T16:40:27.635Z,0.97
2022-09-18T16:42:58.287Z,1.00
2022-09-18T16:45:27.036Z,1.13
2022-09-18T16:47:59.872Z,1.07
2022-09-18T16:50:27.356Z,1.07
2022-09-18T16:52:57.531Z,0.93
2022-09-18T16:55:26.896Z,1.20
2022-09-18T16:57:55.212Z,1.40
2022-09-18T17:00:22.062Z,1.30
2022-09-18T17:02:50.570Z,1.20
2022-09-18T17:05:17.776Z,0.93
2022-09-18T17:07:44.616Z,0.90
2022-09-18T17:10:12.599Z,1.33
2022-09-18T17:12:40.649Z,1.30
2022-09-18T17:15:08.861Z,0.80
2022-09-18T17:17:35.871Z,1.00
2022-09-18T17:20:03.256Z,1.27
2022-09-18T17:22:31.277Z,1.53
2022-09-18T17:24:58.444Z,1.10
2022-09-18T17:27:25.944Z,1.90
2022-09-18T17:29:52.790Z,1.53
2022-09-18T17:32:19.690Z,0.93
2022-09-18T17:34:46.511Z,0.80
2022-09-18T17:37:15.506Z,0.90
2022-09-18T17:39:42.240Z,1.20
2022-09-18T17:42:09.087Z,1.17
2022-09-18T17:44:37.077Z,1.33
2022-09-18T17:47:04.185Z,1.70
2022-09-18T17:49:32.506Z,1.20
2022-09-18T17:52:00.196Z,1.00
2022-09-18T17:54:27.893Z,0.90
2022-09-18T17:56:55.712Z,1.00
2022-09-18T17:59:22.840Z,0.90
2022-09-18T18:01:49.912Z,1.07
2022-09-18T18:04:16.812Z,1.60
2022-09-18T18:06:47.520Z,1.60
2022-09-18T18:09:15.082Z,0.70
2022-09-18T18:11:44.286Z,0.80
2022-09-18T18:14:11.125Z,1.07
2022-09-18T18:16:41.045Z,0.80
2022-09-18T18:19:12.121Z,0.50
2022-09-18T18:21:41.253Z,1.07
2022-09-18T18:24:14.873Z,0.80
2022-09-18T18:26:42.945Z,0.90
2022-09-18T18:29:12.007Z,0.90
2022-09-18T18:31:40.642Z,0.90
2022-09-18T18:34:10.727Z,0.93
2022-09-18T18:36:39.222Z,0.90
2022-09-18T18:39:09.877Z,0.90
2022-09-18T18:41:37.215Z,1.10
2022-09-18T18:44:05.761Z,1.40
2022-09-18T18:46:35.872Z,0.90
2022-09-18T18:49:09.349Z,0.87
2022-09-18T18:51:45.902Z,1.10
2022-09-18T18:54:14.075Z,0.70
2022-09-18T18:56:41.477Z,1.63
2022-09-18T18:59:11.129Z,1.30
2022-09-18T19:01:38.550Z,0.87
2022-09-18T19:04:08.407Z,1.10
2022-09-18T19:06:38.735Z,0.90
2022-09-18T19:09:18.043Z,2.40
2022-09-18T19:11:48.284Z,0.97
2022-09-18T19:14:24.236Z,1.10
2022-09-18T19:16:52.328Z,0.87
2022-09-18T19:19:21.275Z,1.27
2022-09-18T19:21:48.159Z,0.97
2022-09-18T19:24:16.399Z,1.00
2022-09-18T19:26:43.537Z,0.90
2022-09-18T19:29:15.715Z,1.53
2022-09-18T19:31:44.495Z,0.97
2022-09-18T19:34:13.523Z,1.00
2022-09-18T19:36:40.987Z,0.77
2022-09-18T19:39:11.204Z,0.80
2022-09-18T19:41:57.576Z,1.10
2022-09-18T19:44:36.317Z,1.00
2022-09-18T19:47:26.014Z,1.13
2022-09-18T19:49:55.288Z,1.03
2022-09-18T19:52:25.037Z,1.00
2022-09-18T19:54:54.911Z,1.17
2022-09-18T19:57:23.754Z,1.00
2022-09-18T19:59:55.280Z,0.90
2022-09-18T20:02:24.215Z,1.00
2022-09-18T20:04:51.249Z,1.40
2022-09-18T20:07:18.128Z,0.97
2022-09-18T20:09:44.862Z,1.30
2022-09-18T20:12:12.714Z,1.43
2022-09-18T20:14:39.540Z,1.30
2022-09-18T20:17:06.338Z,1.30
2022-09-18T20:19:33.856Z,1.40
2022-09-18T20:22:02.748Z,1.40
2022-09-18T20:24:30.852Z,1.60
2022-09-18T20:26:58.618Z,1.33
2022-09-18T20:29:27.758Z,1.57
2022-09-18T20:31:54.894Z,1.43
2022-09-18T20:34:24.749Z,1.80
2022-09-18T20:36:55.002Z,1.33
2022-09-18T20:39:22.001Z,1.53
2022-09-18T20:41:51.213Z,1.20
2022-09-18T20:44:19.151Z,1.43
2022-09-18T20:46:46.058Z,1.60
2022-09-18T20:49:17.432Z,1.77
2022-09-18T20:51:44.434Z,1.50
2022-09-18T20:54:13.998Z,1.40
2022-09-18T20:56:43.313Z,1.60
2022-09-18T20:59:16.628Z,1.53
2022-09-18T21:01:45.061Z,1.80
2022-09-18T21:04:17.506Z,1.83
2022-09-18T21:06:47.176Z,1.60
2022-09-18T21:09:14.190Z,1.50
2022-09-18T21:11:43.310Z,1.73
2022-09-18T21:14:12.587Z,1.57
2022-09-18T21:16:42.756Z,1.60
2022-09-18T21:19:11.756Z,1.50
2022-09-18T21:21:38.859Z,1.60
2022-09-18T21:24:06.330Z,1.60
2022-09-18T21:26:41.496Z,1.40
2022-09-18T21:29:18.068Z,1.60
2022-09-18T21:31:46.601Z,1.73
2022-09-18T21:34:24.258Z,1.23
2022-09-18T21:36:53.835Z,1.37
2022-09-18T21:39:21.008Z,1.83
2022-09-18T21:41:48.313Z,1.03
2022-09-18T21:44:17.913Z,1.30
2022-09-18T21:46:47.794Z,1.80
2022-09-18T21:49:16.277Z,1.70
2022-09-18T21:51:43.937Z,1.80
2022-09-18T21:54:15.243Z,1.80
2022-09-18T21:56:43.746Z,1.37
2022-09-18T21:59:10.892Z,1.33
2022-09-18T22:01:38.281Z,1.30
2022-09-18T22:04:07.374Z,1.00
2022-09-18T22:06:44.955Z,1.30
2022-09-18T22:09:13.351Z,1.00
2022-09-18T22:11:41.534Z,1.67
2022-09-18T22:14:13.983Z,1.13
2022-09-18T22:16:43.044Z,1.10
2022-09-18T22:19:10.591Z,1.73
2022-09-18T22:21:39.702Z,1.07
2022-09-18T22:24:12.748Z,1.30
2022-09-18T22:26:42.203Z,1.50
2022-09-18T22:29:17.495Z,1.70
2022-09-18T22:31:46.768Z,1.53
2022-09-18T22:34:16.106Z,1.03
2022-09-18T22:36:43.147Z,1.37
2022-09-18T22:39:11.934Z,1.60
2022-09-18T22:41:39.617Z,1.33
2022-09-18T22:44:07.643Z,1.20
2022-09-18T22:46:37.641Z,1.07
2022-09-18T22:49:06.329Z,1.57
2022-09-18T22:51:33.164Z,1.40
2022-09-18T22:54:04.728Z,1.70
2022-09-18T22:56:32.082Z,1.70
2022-09-18T22:59:02.175Z,1.60
2022-09-18T23:01:37.498Z,1.23
2022-09-18T23:04:05.283Z,1.20
2022-09-18T23:06:33.640Z,1.20
2022-09-18T23:09:01.198Z,1.40
2022-09-18T23:11:30.943Z,1.30
2022-09-18T23:14:06.271Z,1.23
2022-09-18T23:16:34.781Z,1.50
2022-09-18T23:19:06.578Z,1.00
2022-09-18T23:21:34.671Z,1.30
2022-09-18T23:24:08.635Z,1.03
2022-09-18T23:26:39.184Z,1.10
2022-09-18T23:29:11.864Z,1.30
2022-09-18T23:31:41.182Z,1.13
2022-09-18T23:34:15.065Z,1.20
2022-09-18T23:36:46.480Z,2.23
2022-09-18T23:39:23.853Z,1.20
2022-09-18T23:41:51.559Z,1.10
2022-09-18T23:44:19.954Z,1.40
2022-09-18T23:46:47.968Z,1.00
2022-09-18T23:49:16.130Z,1.03
2022-09-18T23:51:46.194Z,1.30
2022-09-18T23:54:19.415Z,1.07
2022-09-18T23:56:47.297Z,1.10
2022-09-18T23:59:18.594Z,1.30
